Flight Track Log - Related Links

Times and Time Zones

All times are in EDT time to prevent confusion due to time zone crossing. See the GTI37 flight status page for this flight to view local times or setup timezone preferences in your user account.


Time Position Orientation Groundspeed Altitude Reporting Facility
EDT Latitude Longitude Course Direction KTS MPH feet Rate Location/Type
Thu 10:43:46 AM 25.7900 -80.3060 North 11 13  Level FlightAware ADS-B
Thu 10:44:45 AM 25.7910 -80.3060 360° North 10 12 83 Level FlightAware ADS-B
Thu 10:47:00 AM 25.5592 -80.1110 100° East  Level Estimated
Thu 10:48:00 AM 25.4561 -80.0246 110° East  Level Estimated
Thu 10:49:00 AM 25.3529 -79.9383 105° East  Level Estimated
Thu 10:50:00 AM 25.2497 -79.8522 104° East  Level Estimated
Thu 10:51:00 AM 25.1464 -79.7662 105° East  Level Estimated
Thu 10:52:00 AM 25.0431 -79.6804 90° East  Level Estimated
Thu 10:52:27 AM 25.7880 -80.3060 180° South 20 23  Level FlightAware ADS-B
Thu 10:52:41 AM 25.7880 -80.3070 270° West 22 25 171 Level FlightAware ADS-B
Thu 10:53:53 AM 25.7880 -80.3110 270° West 15 17 176 Level FlightAware ADS-B
Thu 10:54:13 AM 25.7880 -80.3130 270° West 17 20 207 Level FlightAware ADS-B
Thu 10:54:29 AM 25.7880 -80.3140 270° West 27 31 218 Level FlightAware ADS-B
Thu 10:54:46 AM 25.7880 -80.3150 270° West 23 26 228 Level FlightAware ADS-B
Thu 10:57:00 AM 25.5579 -80.1214 100° East  Level Estimated
Thu 10:57:30 AM 25.7870 -80.3150 100° East 22 25  Level FlightAware ADS-B
Thu 10:59:58 AM 25.7870 -80.2930 100° East 175 201 447 Level FlightAware ADS-B
Thu 11:00:00 AM 25.5295 -80.0983 100° East  Level Estimated
Thu 11:00:38 AM 25.7840 -80.2560 95° East 187 215 1,400  Level FlightAware ADS-B
Thu 11:01:18 AM 25.7670 -80.2150 115° Southeast 243 280 2,200 1,457 Climbing FlightAware ADS-B
Thu 11:01:48 AM 25.7520 -80.1780 114° Southeast 270 311 3,100 2,464 Climbing FlightAware ADS-B
Thu 11:02:14 AM 25.7380 -80.1450 115° Southeast 274 315 4,500 2,947 Climbing FlightAware ADS-B
Thu 11:02:45 AM 25.7210 -80.1040 115° Southeast 288 331 5,900 2,847 Climbing FlightAware ADS-B
Thu 11:03:13 AM 25.7070 -80.0640 111° Southeast 290 334 7,300 2,842 Climbing FlightAware ADS-B
Thu 11:03:42 AM 25.6990 -80.0230 102° East 300 345 8,600 2,372 Climbing FlightAware ADS-B
Thu 11:03:56 AM 25.6960 -80.0060 101° East 304 350 9,000 2,357 Climbing FlightAware ADS-B
Thu 11:04:38 AM 25.6820 -79.9370 103° East 323 372 10,800 1,902 Climbing FlightAware ADS-B
Thu 11:05:18 AM 25.6690 -79.8670 102° East 368 423 11,600 1,590 Climbing FlightAware ADS-B
Thu 11:06:01 AM 25.6530 -79.7820 102° East 399 459 13,000 2,268 Climbing FlightAware ADS-B
Thu 11:06:40 AM 25.6370 -79.7040 103° East 412 474 14,700 2,581 Climbing FlightAware ADS-B
Thu 11:07:27 AM 25.6190 -79.6100 102° East 424 488 16,700 2,523 Climbing FlightAware ADS-B
Thu 11:08:08 AM 25.6010 -79.5150 102° East 439 505 18,400 2,312 Climbing FlightAware ADS-B
Thu 11:09:16 AM 25.5730 -79.3710 102° East 455 524 20,900 2,214 Climbing FlightAware ADS-B
Thu 11:09:51 AM 25.5520 -79.2850 105° East 462 532 22,200 1,976 Climbing FlightAware ADS-B
Thu 11:10:41 AM 25.4880 -79.1880 126° Southeast 479 551 23,700 1,674 Climbing FlightAware ADS-B
Thu 11:11:17 AM 25.4360 -79.1220 131° Southeast 491 565 24,600 600 Climbing FlightAware ADS-B
Thu 11:12:11 AM 25.3680 -79.0350 131° Southeast 491 565 24,600  Level FlightAware ADS-B
Thu 11:13:00 AM 25.3060 -78.9560 131° Southeast 491 565 24,600  Level FlightAware ADS-B
Thu 11:13:49 AM 25.2440 -78.8770 131° Southeast 491 565 24,600  Level FlightAware ADS-B
Thu 11:14:32 AM 25.1890 -78.8080 131° Southeast 491 565 24,600 4,696 Level FlightAware ADS-B
Thu 11:15:21 AM 25.1294 -78.6194 131° Southeast 501 577 31,800 4,954 Climbing Miami Center
Thu 11:16:21 AM 25.0808 -78.4764 111° Southeast 501 577 33,600 1,600 Climbing Miami Center
Thu 11:17:21 AM 25.0322 -78.3336 111° Southeast 501 577 35,000 700 Climbing Miami Center
Thu 11:18:21 AM 24.9814 -78.1956 112° Southeast 489 563 35,000  Level Miami Center
Thu 11:19:21 AM 24.8925 -78.0822 131° Southeast 481 554 35,000  Level Miami Center
Thu 11:20:21 AM 24.7928 -77.9758 136° Southeast 487 560 35,000  Level Miami Center
Thu 11:21:21 AM 24.6975 -77.8675 134° Southeast 487 560 35,000  Level Miami Center
Thu 11:22:21 AM 24.6019 -77.7617 135° Southeast 487 560 35,000  Level Miami Center
Thu 11:23:21 AM 24.5067 -77.6514 134° Southeast 487 560 35,000  Level Miami Center
Thu 11:24:21 AM 24.4131 -77.5708 142° Southeast 487 560 35,000  Level Miami Center
Thu 11:25:21 AM 24.3131 -77.4403 130° Southeast 496 571 35,000  Level Miami Center
Thu 11:26:21 AM 24.2175 -77.3306 134° Southeast 491 565 35,000  Level Miami Center
Thu 11:27:21 AM 24.1217 -77.2231 134° Southeast 485 558 35,000  Level Miami Center
Thu 11:28:21 AM 24.0214 -77.1158 136° Southeast 485 558 35,000  Level Miami Center
Thu 11:29:21 AM 23.9233 -77.0089 135° Southeast 485 558 35,000  Level Miami Center
Thu 11:30:21 AM 23.8272 -76.9044 135° Southeast 485 558 35,000  Level Miami Center
Thu 11:31:21 AM 23.7292 -76.7953 134° Southeast 490 564 35,000  Level Miami Center
Thu 11:32:21 AM 23.6308 -76.6864 135° Southeast 490 564 35,000  Level Miami Center
Thu 11:33:21 AM 23.5303 -76.5800 136° Southeast 490 564 35,000  Level Miami Center
Thu 11:34:21 AM 23.4319 -76.4739 135° Southeast 490 564 35,000  Level Miami Center
Thu 11:35:21 AM 23.3333 -76.3678 135° Southeast 490 564 35,000  Level Miami Center
Thu 11:36:21 AM 23.2325 -76.2575 135° Southeast 495 570 35,000  Level Miami Center
Thu 11:37:21 AM 23.1339 -76.1542 136° Southeast 495 570 35,000  Level Miami Center
Thu 11:38:21 AM 23.0353 -76.0461 135° Southeast 495 570 35,000  Level Miami Center
Thu 11:39:21 AM 22.9342 -75.9386 136° Southeast 495 570 35,000  Level Miami Center
Thu 11:40:21 AM 22.8353 -75.8311 135° Southeast 495 570 35,000  Level Miami Center
Thu 11:41:21 AM 22.7364 -75.7261 136° Southeast 500 575 35,000  Level Miami Center
Thu 11:42:21 AM 22.6375 -75.6211 136° Southeast 500 575 35,000  Level Miami Center
Thu 11:43:21 AM 22.5383 -75.5164 136° Southeast 500 575 35,000  Level Miami Center
Thu 11:44:21 AM 22.4369 -75.4094 136° Southeast 500 575 35,000  Level Miami Center
Thu 11:45:21 AM 22.3400 -75.3028 134° Southeast 500 575 35,000  Level Miami Center
Thu 11:46:21 AM 22.2386 -75.1986 136° Southeast 500 575 35,000  Level Miami Center
Thu 11:47:21 AM 22.1411 -75.0944 135° Southeast 500 575 35,000  Level Miami Center
Thu 11:48:21 AM 22.0378 -74.9928 138° Southeast 500 575 35,000  Level Miami Center
Thu 11:49:21 AM 21.9319 -74.8936 139° Southeast 500 575 35,000  Level Miami Center
Thu 11:50:21 AM 21.8264 -74.7967 140° Southeast 500 575 35,000  Level Miami Center
Thu 11:51:21 AM 21.7161 -74.6800 135° Southeast 500 575 35,000 -50 Level Miami Center
Thu 11:52:21 AM 21.6081 -74.5814 140° Southeast 500 575 34,900 -50 Descending Miami Center
Thu 11:53:21 AM 21.5042 -74.4806 138° Southeast 500 575 34,900 50 Level Miami Center
Thu 11:54:21 AM 21.3983 -74.3819 139° Southeast 500 575 35,000 50 Climbing Miami Center
Thu 11:55:21 AM 21.2903 -74.2792 138° Southeast 505 581 35,000 -50 Level Miami Center
Thu 11:56:21 AM 21.1861 -74.1833 139° Southeast 505 581 34,900 -50 Descending Miami Center
Thu 11:57:21 AM 21.0800 -74.0853 139° Southeast 505 581 34,900  Level Miami Center
Thu 11:58:21 AM 20.9717 -73.9831 139° Southeast 510 587 34,900 50 Level Miami Center
Thu 11:59:21 AM 20.8656 -73.8833 139° Southeast 510 587 35,000 50 Climbing Miami Center
Thu 12:00:21 PM 20.7614 -73.7878 139° Southeast 510 587 35,000  Level Miami Center
Thu 12:01:21 PM 20.6636 -73.6992 140° Southeast 510 587 35,000  Level Miami Center
Thu 12:02:21 PM 20.5594 -73.6019 139° Southeast 510 587 35,000  Level Miami Center
Thu 12:03:21 PM 20.4531 -73.5025 139° Southeast 515 593 35,000 -50 Level Miami Center
Thu 12:04:21 PM 20.3467 -73.4056 139° Southeast 515 593 34,900  Descending Miami Center
Thu 12:05:21 PM 20.2400 -73.3089 140° Southeast 515 593 35,000 50 Climbing Miami Center
Thu 12:06:21 PM 20.1336 -73.2122 140° Southeast 509 586 35,000 92 Level Miami Center
Thu 12:08:00 PM 19.9616 -73.0744 143° Southeast  Level FlightAware Approximate
Thu 12:15:00 PM 19.2306 -72.4928 143° Southeast  Level FlightAware Approximate
Thu 12:16:00 PM 19.1260 -72.4101 143° Southeast  Level FlightAware Approximate
Thu 12:17:00 PM 19.0214 -72.3276 143° Southeast  Level FlightAware Approximate
Thu 12:18:00 PM 18.9167 -72.2451 143° Southeast  Level FlightAware Approximate
Thu 12:19:00 PM 18.8120 -72.1628 143° Southeast  Level FlightAware Approximate
Thu 12:20:00 PM 18.7073 -72.0805 143° Southeast  Level FlightAware Approximate
Thu 12:21:00 PM 18.6026 -71.9984 143° Southeast  Level FlightAware Approximate
Thu 12:22:00 PM 18.4986 -71.9152 137° Southeast  Level FlightAware Approximate
Thu 12:23:00 PM 18.3960 -71.8307 148° Southeast  Level FlightAware Approximate
Thu 12:24:00 PM 18.2857 -71.7571 148° Southeast  Level FlightAware Approximate
Thu 12:25:00 PM 18.1787 -71.6786 144° Southeast  Level FlightAware Approximate
Thu 12:26:00 PM 18.0732 -71.5978 144° Southeast  Level FlightAware Approximate
Thu 12:27:00 PM 17.9677 -71.5170 144° Southeast  Level FlightAware Approximate
Thu 12:27:12 PM 17.8210 -71.3280 144° Southeast 510 587 37,000  Level FlightAware ADS-B
Thu 12:28:17 PM 17.7190 -71.2430 142° Southeast 510 587 37,000  Level FlightAware ADS-B
Thu 12:28:56 PM 17.6570 -71.1930 142° Southeast 510 587 37,000  Level FlightAware ADS-B
Thu 12:29:56 PM 17.5620 -71.1150 142° Southeast 510 587 37,000  Level FlightAware ADS-B
Thu 12:32:00 PM 17.3260 -70.9781 151° Southeast  Level FlightAware Approximate
Thu 12:33:00 PM 17.2118 -70.9120 151° Southeast  Level FlightAware Approximate
Thu 12:33:26 PM 17.2300 -70.8430 151° Southeast 510 587 37,000  Level FlightAware ADS-B
Thu 12:34:17 PM 17.1500 -70.7770 142° Southeast 510 587 37,000  Level FlightAware ADS-B
Thu 12:34:53 PM 17.0930 -70.7310 142° Southeast 510 587 37,000 -30 Level FlightAware ADS-B
Thu 12:37:00 PM 16.8607 -70.5748 147° Southeast  Level FlightAware Approximate
Thu 12:38:00 PM 16.7509 -70.5011 147° Southeast  Level FlightAware Approximate
Thu 12:39:00 PM 16.6410 -70.4275 147° Southeast  Level FlightAware Approximate
Thu 12:40:00 PM 16.5312 -70.3540 147° Southeast  Level FlightAware Approximate
Thu 12:41:00 PM 16.4213 -70.2806 147° Southeast  Level FlightAware Approximate
Thu 12:42:00 PM 16.3114 -70.2072 147° Southeast  Level FlightAware Approximate
Thu 12:43:00 PM 16.2014 -70.1340 147° Southeast  Level FlightAware Approximate
Thu 12:44:00 PM 16.0915 -70.0608 147° Southeast  Level FlightAware Approximate
Thu 12:45:00 PM 15.9809 -69.9857 144° Southeast  Level FlightAware Approximate
Thu 12:46:00 PM 15.8748 -69.9066 144° Southeast  Level FlightAware Approximate
Thu 12:47:00 PM 15.7687 -69.8276 144° Southeast  Level FlightAware Approximate
Thu 12:48:00 PM 15.6626 -69.7486 144° Southeast  Level FlightAware Approximate
Thu 12:49:00 PM 15.5565 -69.6698 144° Southeast  Level FlightAware Approximate
Thu 12:50:00 PM 15.4504 -69.5910 144° Southeast  Level FlightAware Approximate
Thu 12:51:00 PM 15.3442 -69.5123 144° Southeast  Level FlightAware Approximate
Thu 12:52:00 PM 15.2380 -69.4337 144° Southeast  Level FlightAware Approximate
Thu 12:53:00 PM 15.1317 -69.3551 144° Southeast  Level FlightAware Approximate
Thu 12:54:00 PM 15.0255 -69.2767 145° Southeast  Level FlightAware Approximate
Thu 12:55:00 PM 14.9192 -69.1983 145° Southeast  Level FlightAware Approximate
Thu 12:56:00 PM 14.8129 -69.1200 145° Southeast  Level FlightAware Approximate
Thu 12:57:00 PM 14.7065 -69.0417 145° Southeast  Level FlightAware Approximate
Thu 12:58:00 PM 14.6002 -68.9636 145° Southeast  Level FlightAware Approximate
Thu 12:59:00 PM 14.4937 -68.8855 145° Southeast  Level FlightAware Approximate
Thu 01:00:00 PM 14.3873 -68.8075 145° Southeast  Level FlightAware Approximate
Thu 01:01:00 PM 14.2809 -68.7296 145° Southeast  Level FlightAware Approximate
Thu 01:02:00 PM 14.1744 -68.6517 145° Southeast  Level FlightAware Approximate
Thu 01:03:00 PM 14.0679 -68.5740 145° Southeast  Level FlightAware Approximate
Thu 01:04:00 PM 13.9614 -68.4962 145° Southeast  Level FlightAware Approximate
Thu 01:05:00 PM 13.8548 -68.4186 145° Southeast  Level FlightAware Approximate
Thu 01:06:00 PM 13.7483 -68.3410 145° Southeast  Level FlightAware Approximate
Thu 01:07:00 PM 13.6417 -68.2635 145° Southeast  Level FlightAware Approximate
Thu 01:08:00 PM 13.5351 -68.1861 145° Southeast  Level FlightAware Approximate
Thu 01:09:00 PM 13.4284 -68.1088 145° Southeast  Level FlightAware Approximate
Thu 01:10:00 PM 13.3217 -68.0315 145° Southeast  Level FlightAware Approximate
Thu 01:11:00 PM 13.2150 -67.9542 145° Southeast  Level FlightAware Approximate
Thu 01:12:00 PM 13.1083 -67.8771 145° Southeast  Level FlightAware Approximate
Thu 01:13:00 PM 13.0016 -67.8000 145° Southeast  Level FlightAware Approximate
Thu 01:14:00 PM 12.8948 -67.7230 145° Southeast  Level FlightAware Approximate
Thu 01:15:00 PM 12.7881 -67.6459 145° Southeast  Level FlightAware Approximate
Thu 01:16:00 PM 12.6816 -67.5686 145° Southeast  Level FlightAware Approximate
Thu 01:17:00 PM 12.5751 -67.4914 145° Southeast  Level FlightAware Approximate
Thu 01:18:00 PM 12.4685 -67.4142 145° Southeast  Level FlightAware Approximate
Thu 01:19:00 PM 12.3619 -67.3370 145° Southeast  Level FlightAware Approximate
Thu 01:20:00 PM 12.2554 -67.2600 145° Southeast  Level FlightAware Approximate
Thu 01:21:00 PM 12.1487 -67.1830 145° Southeast  Level FlightAware Approximate
Thu 01:22:00 PM 12.0421 -67.1060 145° Southeast  Level FlightAware Approximate
Thu 01:23:00 PM 11.9354 -67.0292 145° Southeast  Level FlightAware Approximate
Thu 01:24:00 PM 11.8287 -66.9523 145° Southeast  Level FlightAware Approximate
Thu 01:25:00 PM 11.7220 -66.8756 145° Southeast  Level FlightAware Approximate
Thu 01:26:00 PM 11.6153 -66.7989 145° Southeast  Level FlightAware Approximate
Thu 01:27:00 PM 11.5086 -66.7222 145° Southeast  Level FlightAware Approximate
Thu 01:28:00 PM 11.4018 -66.6457 145° Southeast  Level FlightAware Approximate
Thu 01:29:00 PM 11.2950 -66.5691 145° Southeast  Level FlightAware Approximate
Thu 01:30:00 PM 11.1882 -66.4927 145° Southeast  Level FlightAware Approximate
Thu 01:31:00 PM 11.0814 -66.4163 145° Southeast  Level FlightAware Approximate
Thu 01:32:00 PM 10.9746 -66.3399 145° Southeast  Level FlightAware Approximate
Thu 01:33:00 PM 10.8677 -66.2636 145° Southeast  Level FlightAware Approximate
Thu 01:34:00 PM 10.7608 -66.1874 145° Southeast  Level FlightAware Approximate
Thu 01:35:00 PM 10.6539 -66.1112 145° Southeast  Level FlightAware Approximate
Thu 01:36:00 PM 10.5470 -66.0350 145° Southeast  Level FlightAware Approximate
Thu 01:37:00 PM 10.4401 -65.9590 145° Southeast  Level FlightAware Approximate
Thu 01:38:00 PM 10.3331 -65.8829 145° Southeast  Level FlightAware Approximate
Thu 01:39:00 PM 10.2262 -65.8070 145° Southeast  Level FlightAware Approximate
Thu 01:40:00 PM 10.1192 -65.7310 145° Southeast  Level FlightAware Approximate
Thu 01:41:00 PM 10.0122 -65.6551 145° Southeast  Level FlightAware Approximate
Thu 01:42:00 PM 9.9052 -65.5793 145° Southeast  Level FlightAware Approximate
Thu 01:43:00 PM 9.7981 -65.5035 145° Southeast  Level FlightAware Approximate
Thu 01:44:00 PM 9.6910 -65.4278 145° Southeast  Level FlightAware Approximate
Thu 01:45:00 PM 9.5840 -65.3521 145° Southeast  Level FlightAware Approximate
Thu 01:46:00 PM 9.4769 -65.2765 145° Southeast  Level FlightAware Approximate
Thu 01:47:00 PM 9.3698 -65.2009 145° Southeast  Level FlightAware Approximate
Thu 01:48:00 PM 9.2626 -65.1254 145° Southeast  Level FlightAware Approximate
Thu 01:49:00 PM 9.1555 -65.0499 145° Southeast  Level FlightAware Approximate
Thu 01:50:00 PM 9.0483 -64.9745 145° Southeast  Level FlightAware Approximate
Thu 01:51:00 PM 8.9412 -64.8991 145° Southeast  Level FlightAware Approximate
Thu 01:52:00 PM 8.8340 -64.8237 145° Southeast  Level FlightAware Approximate
Thu 01:53:00 PM 8.7268 -64.7484 145° Southeast  Level FlightAware Approximate
Thu 01:54:00 PM 8.6195 -64.6731 145° Southeast  Level FlightAware Approximate
Thu 01:55:00 PM 8.5123 -64.5979 145° Southeast  Level FlightAware Approximate
Thu 01:56:00 PM 8.4051 -64.5228 145° Southeast  Level FlightAware Approximate
Thu 01:57:00 PM 8.2978 -64.4476 145° Southeast  Level FlightAware Approximate
Thu 01:58:00 PM 8.1905 -64.3725 145° Southeast  Level FlightAware Approximate
Thu 01:59:00 PM 8.0832 -64.2974 145° Southeast  Level FlightAware Approximate
Thu 02:00:00 PM 7.9759 -64.2224 145° Southeast  Level FlightAware Approximate
Thu 02:01:00 PM 7.8686 -64.1475 145° Southeast  Level FlightAware Approximate
Thu 02:02:00 PM 7.7613 -64.0725 145° Southeast  Level FlightAware Approximate
Thu 02:03:00 PM 7.6540 -63.9976 145° Southeast  Level FlightAware Approximate
Thu 02:04:00 PM 7.5466 -63.9227 145° Southeast  Level FlightAware Approximate
Thu 02:05:00 PM 7.4392 -63.8479 145° Southeast  Level FlightAware Approximate
Thu 02:06:00 PM 7.3318 -63.7731 145° Southeast  Level FlightAware Approximate
Thu 02:07:00 PM 7.2245 -63.6984 145° Southeast  Level FlightAware Approximate
Thu 02:08:00 PM 7.1170 -63.6237 145° Southeast  Level FlightAware Approximate
Thu 02:09:00 PM 7.0096 -63.5490 145° Southeast  Level FlightAware Approximate
Thu 02:10:00 PM 6.9022 -63.4743 145° Southeast  Level FlightAware Approximate
Thu 02:11:00 PM 6.7948 -63.3997 145° Southeast  Level FlightAware Approximate
Thu 02:12:00 PM 6.6873 -63.3251 145° Southeast  Level FlightAware Approximate
Thu 02:13:00 PM 6.5798 -63.2506 145° Southeast  Level FlightAware Approximate
Thu 02:14:00 PM 6.4724 -63.1761 145° Southeast  Level FlightAware Approximate
Thu 02:15:00 PM 6.3649 -63.1016 145° Southeast  Level FlightAware Approximate
Thu 02:16:00 PM 6.2574 -63.0272 145° Southeast  Level FlightAware Approximate
Thu 02:17:00 PM 6.1499 -62.9527 145° Southeast  Level FlightAware Approximate
Thu 02:18:00 PM 6.0423 -62.8783 145° Southeast  Level FlightAware Approximate
Thu 02:19:00 PM 5.9348 -62.8040 145° Southeast  Level FlightAware Approximate
Thu 02:20:00 PM 5.8273 -62.7297 145° Southeast  Level FlightAware Approximate
Thu 02:21:00 PM 5.7197 -62.6554 145° Southeast  Level FlightAware Approximate
Thu 02:22:00 PM 5.6122 -62.5811 145° Southeast  Level FlightAware Approximate
Thu 02:23:00 PM 5.5046 -62.5068 146° Southeast  Level FlightAware Approximate
Thu 02:24:00 PM 5.3970 -62.4326 146° Southeast  Level FlightAware Approximate
Thu 02:25:00 PM 5.2894 -62.3584 146° Southeast  Level FlightAware Approximate
Thu 02:26:00 PM 5.1818 -62.2842 146° Southeast  Level FlightAware Approximate
Thu 02:27:00 PM 5.0742 -62.2101 146° Southeast  Level FlightAware Approximate
Thu 02:28:00 PM 4.9666 -62.1360 146° Southeast  Level FlightAware Approximate
Thu 02:29:00 PM 4.8590 -62.0619 146° Southeast  Level FlightAware Approximate
Thu 02:30:00 PM 4.7514 -61.9878 146° Southeast  Level FlightAware Approximate
Thu 02:31:00 PM 4.6438 -61.9138 146° Southeast  Level FlightAware Approximate
Thu 02:32:00 PM 4.5361 -61.8397 146° Southeast  Level FlightAware Approximate
Thu 02:33:00 PM 4.4285 -61.7657 146° Southeast  Level FlightAware Approximate
Thu 02:34:00 PM 4.3208 -61.6917 146° Southeast  Level FlightAware Approximate
Thu 02:35:00 PM 4.2131 -61.6178 146° Southeast  Level FlightAware Approximate
Thu 02:36:00 PM 4.1055 -61.5438 146° Southeast  Level FlightAware Approximate
Thu 02:37:00 PM 3.9978 -61.4699 146° Southeast  Level FlightAware Approximate
Thu 02:38:00 PM 3.8901 -61.3960 146° Southeast  Level FlightAware Approximate
Thu 02:39:00 PM 3.7824 -61.3222 146° Southeast  Level FlightAware Approximate
Thu 02:40:00 PM 3.6747 -61.2483 146° Southeast  Level FlightAware Approximate
Thu 02:41:00 PM 3.5670 -61.1744 146° Southeast  Level FlightAware Approximate
Thu 02:42:00 PM 3.4593 -61.1006 146° Southeast  Level FlightAware Approximate
Thu 02:43:00 PM 3.3516 -61.0268 146° Southeast  Level FlightAware Approximate
Thu 02:44:00 PM 3.2439 -60.9530 146° Southeast  Level FlightAware Approximate
Thu 02:45:00 PM 3.1361 -60.8792 146° Southeast  Level FlightAware Approximate
Thu 02:46:00 PM 3.0284 -60.8055 146° Southeast  Level FlightAware Approximate
Thu 02:47:00 PM 2.9207 -60.7317 146° Southeast  Level FlightAware Approximate
Thu 02:48:00 PM 2.8054 -60.6785 174° South  Level FlightAware Approximate
Thu 02:49:00 PM 2.6756 -60.6645 174° South  Level FlightAware Approximate
Thu 02:50:00 PM 2.5459 -60.6504 174° South  Level FlightAware Approximate
Thu 02:51:00 PM 2.4161 -60.6364 174° South  Level FlightAware Approximate
Thu 02:52:00 PM 2.2864 -60.6223 174° South  Level FlightAware Approximate
Thu 02:53:00 PM 2.1566 -60.6083 174° South  Level FlightAware Approximate
Thu 02:54:00 PM 2.0268 -60.5942 174° South  Level FlightAware Approximate
Thu 02:55:00 PM 1.8971 -60.5802 174° South  Level FlightAware Approximate
Thu 02:56:00 PM 1.7673 -60.5662 174° South  Level FlightAware Approximate
Thu 02:57:00 PM 1.6376 -60.5522 174° South  Level FlightAware Approximate
Thu 02:58:00 PM 1.5079 -60.5381 174° South  Level FlightAware Approximate
Thu 02:59:00 PM 1.3781 -60.5241 174° South  Level FlightAware Approximate
Thu 03:00:00 PM 1.2484 -60.5101 174° South  Level FlightAware Approximate
Thu 03:01:00 PM 1.1186 -60.4960 174° South  Level FlightAware Approximate
Thu 03:02:00 PM 0.9888 -60.4820 174° South  Level FlightAware Approximate
Thu 03:03:00 PM 0.8591 -60.4680 174° South  Level FlightAware Approximate
Thu 03:04:00 PM 0.7293 -60.4540 174° South  Level FlightAware Approximate
Thu 03:05:00 PM 0.5996 -60.4400 174° South  Level FlightAware Approximate
Thu 03:06:00 PM 0.4699 -60.4259 174° South  Level FlightAware Approximate
Thu 03:07:00 PM 0.3401 -60.4119 174° South  Level FlightAware Approximate
Thu 03:08:00 PM 0.2104 -60.3979 174° South  Level FlightAware Approximate
Thu 03:09:00 PM 0.0806 -60.3839 174° South  Level FlightAware Approximate
Thu 03:10:00 PM -0.0492 -60.3699 174° South  Level FlightAware Approximate
Thu 03:11:00 PM -0.1789 -60.3558 174° South  Level FlightAware Approximate
Thu 03:12:00 PM -0.3086 -60.3418 174° South  Level FlightAware Approximate
Thu 03:12:24 PM -1.1960 -60.2550 174° South 491 565 32,200  Level FlightAware ADS-B
Thu 03:13:00 PM -0.4384 -60.3278 174° South  Level FlightAware Approximate
Thu 03:13:06 PM -1.3000 -60.2450 175° South 478 550 29,600  Level FlightAware ADS-B
Thu 03:13:50 PM -1.3960 -60.2340 173° South 470 541 27,900 -2,200 Descending FlightAware ADS-B
Thu 03:14:36 PM -1.4950 -60.2230 174° South 462 532 26,300 -2,119 Descending FlightAware ADS-B
Thu 03:17:00 PM -1.8044 -60.1828 173° South  Level FlightAware Approximate
Thu 03:18:00 PM -1.9340 -60.1679 173° South  Level FlightAware Approximate
Thu 03:19:00 PM -2.0637 -60.1529 173° South  Level FlightAware Approximate
Thu 03:20:00 PM -2.1933 -60.1380 173° South  Level FlightAware Approximate
Thu 03:20:15 PM -2.1370 -60.1800 173° South 385 443 14,300  Level FlightAware ADS-B
Thu 03:20:58 PM -2.2110 -60.1780 178° South 345 397 13,100 -1,471 Descending FlightAware ADS-B
Thu 03:21:57 PM -2.3140 -60.1730 177° South 340 391 11,800 -929 Descending FlightAware ADS-B
Thu 03:22:22 PM -2.3470 -60.1720 178° South 340 391 11,800 -1,612 Level FlightAware ADS-B
Thu 03:23:04 PM -2.4250 -60.1710 179° South 310 357 10,000 -1,800 Descending FlightAware ADS-B
Thu 03:23:22 PM -2.4510 -60.1700 178° South 293 337 10,000 -409 Level FlightAware ADS-B
Thu 03:23:48 PM -2.4860 -60.1690 178° South 280 322 9,700 -923 Descending FlightAware ADS-B
Thu 03:24:14 PM -2.5190 -60.1670 177° South 279 321 9,200 -1,345 Descending FlightAware ADS-B
Thu 03:24:46 PM -2.5600 -60.1660 179° South 274 315 8,400 -1,500 Descending FlightAware ADS-B
Thu 03:25:34 PM -2.6200 -60.1640 178° South 271 312 7,200 -1,266 Descending FlightAware ADS-B
Thu 03:28:00 PM -2.9231 -60.0554 169° South  Level FlightAware Approximate
Thu 03:28:24 PM -2.8170 -60.1580 169° South 241 277 3,800  Level FlightAware ADS-B
Thu 03:28:50 PM -2.8450 -60.1570 178° South 239 275 3,600 -387 Descending FlightAware ADS-B
Thu 03:29:26 PM -2.8850 -60.1560 179° South 229 264 3,400 -281 Descending FlightAware ADS-B
Thu 03:29:54 PM -2.9140 -60.1550 178° South 218 251 3,300 -564 Descending FlightAware ADS-B
Thu 03:32:00 PM -3.0167 -60.0500 180° South  Level FlightAware Approximate
Thu 03:33:00 PM -3.0386 -60.0497 180° South  Level Estimated
Thu 03:33:52 PM -3.0390 -60.0850 180° South 150 173 900  Level FlightAware ADS-B
Thu 03:34:00 PM -3.0386 -60.0497 180° South  Level Estimated
Thu 03:34:00 PM -3.0390 -60.0760 90° East 152 175 700  Level FlightAware ADS-B
Thu 03:34:43 PM -3.0380 -60.0510 88° East 149 171 500 -279 Descending FlightAware ADS-B
Thu 03:37:00 PM -3.0386 -60.0497 180° South  Level Estimated
Thu 03:38:00 PM -3.0386 -60.0497 180° South  Level Estimated
Thu 03:39:00 PM -3.0386 -60.0497 180° South  Level Estimated
Thu 03:40:00 PM -3.0386 -60.0497 180° South  Level Estimated
Thu 03:41:00 PM -3.0386 -60.0497 180° South  Level Estimated
Thu 03:42:00 PM -3.0386 -60.0497 180° South  Level Estimated
Thu 03:43:00 PM -3.0386 -60.0497 180° South  Level Estimated
Thu 03:44:00 PM -3.0386 -60.0497 180° South  Level Estimated
Thu 03:45:00 PM -3.0386 -60.0497 180° South  Level Estimated
Thu 03:46:00 PM -3.0386 -60.0497 180° South  Level Estimated
Thu 03:47:00 PM -3.0386 -60.0497 180° South  Level Estimated
Thu 03:48:00 PM -3.0386 -60.0497 180° South  Level Estimated
Thu 03:49:00 PM -3.0386 -60.0497 180° South  Level Estimated
Thu 03:50:00 PM -3.0386 -60.0497 180° South  Level Estimated

Login

Don't have an account? Register now (free) for customized features, flight alerts, and more!